sensor_id;sensor_type;location;lat;lon;timestamp;temperature;humidity
15286;DHT22;7744;52.172;10.668;2023-06-19T00:01:10;18.90;1.00
15286;DHT22;7744;52.172;10.668;2023-06-19T00:03:36;18.70;1.00
15286;DHT22;7744;52.172;10.668;2023-06-19T00:06:02;18.70;1.00
15286;DHT22;7744;52.172;10.668;2023-06-19T00:08:27;18.70;1.00
15286;DHT22;7744;52.172;10.668;2023-06-19T00:10:54;18.60;1.00
15286;DHT22;7744;52.172;10.668;2023-06-19T00:13:19;18.70;1.00
15286;DHT22;7744;52.172;10.668;2023-06-19T00:15:45;18.40;1.00
15286;DHT22;7744;52.172;10.668;2023-06-19T00:18:11;18.40;1.00
15286;DHT22;7744;52.172;10.668;2023-06-19T00:20:36;18.40;1.00
15286;DHT22;7744;52.172;10.668;2023-06-19T00:23:04;18.30;1.00
15286;DHT22;7744;52.172;10.668;2023-06-19T00:25:30;18.30;1.00
15286;DHT22;7744;52.172;10.668;2023-06-19T00:27:56;18.40;1.00
15286;DHT22;7744;52.172;10.668;2023-06-19T00:30:21;18.30;1.00
15286;DHT22;7744;52.172;10.668;2023-06-19T00:32:47;18.40;1.00
15286;DHT22;7744;52.172;10.668;2023-06-19T00:35:16;18.40;1.00
15286;DHT22;7744;52.172;10.668;2023-06-19T00:37:44;18.40;1.00
15286;DHT22;7744;52.172;10.668;2023-06-19T00:40:32;18.50;1.00
15286;DHT22;7744;52.172;10.668;2023-06-19T00:42:58;18.50;1.00
15286;DHT22;7744;52.172;10.668;2023-06-19T00:45:25;18.50;1.00
15286;DHT22;7744;52.172;10.668;2023-06-19T00:47:54;18.80;1.00
15286;DHT22;7744;52.172;10.668;2023-06-19T00:50:21;18.50;1.00
15286;DHT22;7744;52.172;10.668;2023-06-19T00:52:49;18.40;1.00
15286;DHT22;7744;52.172;10.668;2023-06-19T00:55:16;18.30;1.00
15286;DHT22;7744;52.172;10.668;2023-06-19T00:57:42;18.30;1.00
15286;DHT22;7744;52.172;10.668;2023-06-19T01:00:09;18.20;1.00
15286;DHT22;7744;52.172;10.668;2023-06-19T01:02:37;18.20;1.00
15286;DHT22;7744;52.172;10.668;2023-06-19T01:05:03;18.10;1.00
15286;DHT22;7744;52.172;10.668;2023-06-19T01:10:31;18.10;1.00
15286;DHT22;7744;52.172;10.668;2023-06-19T01:13:22;18.00;1.00
15286;DHT22;7744;52.172;10.668;2023-06-19T01:15:48;18.00;1.00
15286;DHT22;7744;52.172;10.668;2023-06-19T01:18:15;18.00;1.00
15286;DHT22;7744;52.172;10.668;2023-06-19T01:20:41;18.10;1.00
15286;DHT22;7744;52.172;10.668;2023-06-19T01:23:11;18.20;1.00
15286;DHT22;7744;52.172;10.668;2023-06-19T01:25:37;18.10;1.00
15286;DHT22;7744;52.172;10.668;2023-06-19T01:28:04;18.00;1.00
15286;DHT22;7744;52.172;10.668;2023-06-19T01:30:31;18.20;1.00
15286;DHT22;7744;52.172;10.668;2023-06-19T01:33:02;18.20;1.00
15286;DHT22;7744;52.172;10.668;2023-06-19T01:35:32;18.20;1.00
15286;DHT22;7744;52.172;10.668;2023-06-19T01:37:59;18.20;1.00
15286;DHT22;7744;52.172;10.668;2023-06-19T01:40:27;18.20;1.00
15286;DHT22;7744;52.172;10.668;2023-06-19T01:42:57;18.30;1.00
15286;DHT22;7744;52.172;10.668;2023-06-19T01:45:27;18.40;1.00
15286;DHT22;7744;52.172;10.668;2023-06-19T01:47:53;18.30;1.00
15286;DHT22;7744;52.172;10.668;2023-06-19T01:50:21;18.30;1.00
15286;DHT22;7744;52.172;10.668;2023-06-19T01:52:46;18.20;1.00
15286;DHT22;7744;52.172;10.668;2023-06-19T01:55:13;18.30;1.00
15286;DHT22;7744;52.172;10.668;2023-06-19T01:57:39;18.20;1.00
15286;DHT22;7744;52.172;10.668;2023-06-19T02:00:05;18.20;1.00
15286;DHT22;7744;52.172;10.668;2023-06-19T02:02:36;18.10;1.00
15286;DHT22;7744;52.172;10.668;2023-06-19T02:05:01;18.00;1.00
15286;DHT22;7744;52.172;10.668;2023-06-19T02:07:27;18.00;1.00
15286;DHT22;7744;52.172;10.668;2023-06-19T02:09:53;17.90;1.00
15286;DHT22;7744;52.172;10.668;2023-06-19T02:12:18;17.90;1.00
15286;DHT22;7744;52.172;10.668;2023-06-19T02:14:44;17.90;1.00
15286;DHT22;7744;52.172;10.668;2023-06-19T02:17:09;18.00;1.00
15286;DHT22;7744;52.172;10.668;2023-06-19T02:19:35;18.00;1.00
15286;DHT22;7744;52.172;10.668;2023-06-19T02:22:01;18.00;1.00
15286;DHT22;7744;52.172;10.668;2023-06-19T02:24:26;18.10;1.00
15286;DHT22;7744;52.172;10.668;2023-06-19T02:26:52;18.10;1.00
15286;DHT22;7744;52.172;10.668;2023-06-19T02:29:17;18.10;1.00
15286;DHT22;7744;52.172;10.668;2023-06-19T02:31:44;18.10;1.00
15286;DHT22;7744;52.172;10.668;2023-06-19T02:34:10;18.10;1.00
15286;DHT22;7744;52.172;10.668;2023-06-19T02:36:35;18.20;1.00
15286;DHT22;7744;52.172;10.668;2023-06-19T02:39:04;18.10;1.00
15286;DHT22;7744;52.172;10.668;2023-06-19T02:41:29;18.10;1.00
15286;DHT22;7744;52.172;10.668;2023-06-19T02:43:55;18.20;1.00
15286;DHT22;7744;52.172;10.668;2023-06-19T02:46:20;18.10;1.00
15286;DHT22;7744;52.172;10.668;2023-06-19T02:48:46;18.20;1.00
15286;DHT22;7744;52.172;10.668;2023-06-19T02:51:12;18.20;1.00
15286;DHT22;7744;52.172;10.668;2023-06-19T02:53:37;18.20;1.00
15286;DHT22;7744;52.172;10.668;2023-06-19T02:56:03;18.30;1.00
15286;DHT22;7744;52.172;10.668;2023-06-19T02:58:29;18.30;1.00
15286;DHT22;7744;52.172;10.668;2023-06-19T03:00:54;18.40;1.00
15286;DHT22;7744;52.172;10.668;2023-06-19T03:03:20;18.40;1.00
15286;DHT22;7744;52.172;10.668;2023-06-19T03:05:46;18.50;1.00
15286;DHT22;7744;52.172;10.668;2023-06-19T03:08:11;18.50;1.00
15286;DHT22;7744;52.172;10.668;2023-06-19T03:10:37;18.40;1.00
15286;DHT22;7744;52.172;10.668;2023-06-19T03:13:03;18.40;1.00
15286;DHT22;7744;52.172;10.668;2023-06-19T03:15:28;18.40;1.00
15286;DHT22;7744;52.172;10.668;2023-06-19T03:17:54;18.40;1.00
15286;DHT22;7744;52.172;10.668;2023-06-19T03:20:20;18.30;1.00
15286;DHT22;7744;52.172;10.668;2023-06-19T03:22:46;18.30;1.00
15286;DHT22;7744;52.172;10.668;2023-06-19T03:25:12;18.30;1.00
15286;DHT22;7744;52.172;10.668;2023-06-19T03:27:37;18.40;1.00
15286;DHT22;7744;52.172;10.668;2023-06-19T03:30:04;18.40;1.00
15286;DHT22;7744;52.172;10.668;2023-06-19T03:32:34;18.40;1.00
15286;DHT22;7744;52.172;10.668;2023-06-19T03:35:00;18.40;1.00
15286;DHT22;7744;52.172;10.668;2023-06-19T03:37:26;18.50;1.00
15286;DHT22;7744;52.172;10.668;2023-06-19T03:39:52;18.40;1.00
15286;DHT22;7744;52.172;10.668;2023-06-19T03:42:17;18.40;1.00
15286;DHT22;7744;52.172;10.668;2023-06-19T03:44:43;18.40;1.00
15286;DHT22;7744;52.172;10.668;2023-06-19T03:47:09;18.30;1.00
15286;DHT22;7744;52.172;10.668;2023-06-19T03:49:34;18.20;1.00
15286;DHT22;7744;52.172;10.668;2023-06-19T03:52:00;18.20;1.00
15286;DHT22;7744;52.172;10.668;2023-06-19T03:54:26;18.20;1.00
15286;DHT22;7744;52.172;10.668;2023-06-19T03:56:52;18.20;1.00
15286;DHT22;7744;52.172;10.668;2023-06-19T03:59:17;18.20;1.00
15286;DHT22;7744;52.172;10.668;2023-06-19T04:01:43;18.30;1.00
15286;DHT22;7744;52.172;10.668;2023-06-19T04:04:09;18.40;1.00
15286;DHT22;7744;52.172;10.668;2023-06-19T04:06:35;18.30;1.00
15286;DHT22;7744;52.172;10.668;2023-06-19T04:09:00;18.20;1.00
15286;DHT22;7744;52.172;10.668;2023-06-19T04:11:26;18.10;1.00
15286;DHT22;7744;52.172;10.668;2023-06-19T04:13:52;18.30;1.00
15286;DHT22;7744;52.172;10.668;2023-06-19T04:16:17;18.20;1.00
15286;DHT22;7744;52.172;10.668;2023-06-19T04:18:43;18.10;1.00
15286;DHT22;7744;52.172;10.668;2023-06-19T04:21:09;18.20;1.00
15286;DHT22;7744;52.172;10.668;2023-06-19T04:23:34;18.20;24.80
15286;DHT22;7744;52.172;10.668;2023-06-19T04:26:00;18.30;61.60
15286;DHT22;7744;52.172;10.668;2023-06-19T04:28:26;18.20;1.00
15286;DHT22;7744;52.172;10.668;2023-06-19T04:30:51;18.00;1.00
15286;DHT22;7744;52.172;10.668;2023-06-19T04:33:26;17.90;11.10
15286;DHT22;7744;52.172;10.668;2023-06-19T04:35:51;17.90;1.00
15286;DHT22;7744;52.172;10.668;2023-06-19T04:38:17;18.00;1.00
15286;DHT22;7744;52.172;10.668;2023-06-19T04:40:42;17.90;1.00
15286;DHT22;7744;52.172;10.668;2023-06-19T04:43:08;18.00;1.00
15286;DHT22;7744;52.172;10.668;2023-06-19T04:45:34;18.00;1.00
15286;DHT22;7744;52.172;10.668;2023-06-19T04:47:59;18.00;1.00
15286;DHT22;7744;52.172;10.668;2023-06-19T04:50:28;18.10;1.00
15286;DHT22;7744;52.172;10.668;2023-06-19T04:52:54;18.10;1.00
15286;DHT22;7744;52.172;10.668;2023-06-19T04:55:19;18.20;1.00
15286;DHT22;7744;52.172;10.668;2023-06-19T04:57:45;18.40;1.00
15286;DHT22;7744;52.172;10.668;2023-06-19T05:00:11;18.50;12.80
15286;DHT22;7744;52.172;10.668;2023-06-19T05:02:36;18.50;1.00
15286;DHT22;7744;52.172;10.668;2023-06-19T05:05:02;18.40;1.00
15286;DHT22;7744;52.172;10.668;2023-06-19T05:07:32;18.40;46.90
15286;DHT22;7744;52.172;10.668;2023-06-19T05:09:58;18.50;26.60
15286;DHT22;7744;52.172;10.668;2023-06-19T05:12:24;18.40;1.00
15286;DHT22;7744;52.172;10.668;2023-06-19T05:14:49;18.60;1.00
15286;DHT22;7744;52.172;10.668;2023-06-19T05:17:15;18.80;79.20
15286;DHT22;7744;52.172;10.668;2023-06-19T05:19:41;18.70;78.20
15286;DHT22;7744;52.172;10.668;2023-06-19T05:22:06;18.70;19.80
15286;DHT22;7744;52.172;10.668;2023-06-19T05:24:32;18.70;1.00
15286;DHT22;7744;52.172;10.668;2023-06-19T05:26:58;18.60;1.00
15286;DHT22;7744;52.172;10.668;2023-06-19T05:29:24;18.60;8.20
15286;DHT22;7744;52.172;10.668;2023-06-19T05:31:50;18.50;1.00
15286;DHT22;7744;52.172;10.668;2023-06-19T05:34:16;18.50;14.00
15286;DHT22;7744;52.172;10.668;2023-06-19T05:36:41;18.60;18.10
15286;DHT22;7744;52.172;10.668;2023-06-19T05:39:10;18.60;31.00
15286;DHT22;7744;52.172;10.668;2023-06-19T05:41:36;18.60;77.50
15286;DHT22;7744;52.172;10.668;2023-06-19T05:44:01;18.70;99.90
15286;DHT22;7744;52.172;10.668;2023-06-19T05:46:27;18.70;1.00
15286;DHT22;7744;52.172;10.668;2023-06-19T05:48:52;18.70;1.00
15286;DHT22;7744;52.172;10.668;2023-06-19T05:51:20;18.70;1.00
15286;DHT22;7744;52.172;10.668;2023-06-19T05:53:45;18.70;29.40
15286;DHT22;7744;52.172;10.668;2023-06-19T05:56:12;18.60;1.00
15286;DHT22;7744;52.172;10.668;2023-06-19T05:58:37;18.70;99.90
15286;DHT22;7744;52.172;10.668;2023-06-19T06:01:04;18.60;97.70
15286;DHT22;7744;52.172;10.668;2023-06-19T06:03:30;18.60;99.90
15286;DHT22;7744;52.172;10.668;2023-06-19T06:05:56;18.50;61.00
15286;DHT22;7744;52.172;10.668;2023-06-19T06:08:30;18.60;89.30
15286;DHT22;7744;52.172;10.668;2023-06-19T06:10:56;18.70;99.90
15286;DHT22;7744;52.172;10.668;2023-06-19T06:13:22;18.70;1.60
15286;DHT22;7744;52.172;10.668;2023-06-19T06:15:48;18.50;1.00
15286;DHT22;7744;52.172;10.668;2023-06-19T06:18:13;18.50;1.00
15286;DHT22;7744;52.172;10.668;2023-06-19T06:20:39;18.50;9.10
15286;DHT22;7744;52.172;10.668;2023-06-19T06:23:04;18.70;60.30
15286;DHT22;7744;52.172;10.668;2023-06-19T06:25:30;18.80;24.30
15286;DHT22;7744;52.172;10.668;2023-06-19T06:27:56;18.80;20.90
15286;DHT22;7744;52.172;10.668;2023-06-19T06:30:22;18.70;36.30
15286;DHT22;7744;52.172;10.668;2023-06-19T06:32:49;18.70;28.20
15286;DHT22;7744;52.172;10.668;2023-06-19T06:35:15;18.80;5.70
15286;DHT22;7744;52.172;10.668;2023-06-19T06:37:41;18.80;1.00
15286;DHT22;7744;52.172;10.668;2023-06-19T06:40:07;18.90;14.60
15286;DHT22;7744;52.172;10.668;2023-06-19T06:42:37;19.00;1.00
15286;DHT22;7744;52.172;10.668;2023-06-19T06:45:05;19.10;1.00
15286;DHT22;7744;52.172;10.668;2023-06-19T06:47:30;19.20;1.00
15286;DHT22;7744;52.172;10.668;2023-06-19T06:49:56;19.30;1.00
15286;DHT22;7744;52.172;10.668;2023-06-19T06:52:22;19.40;1.00
15286;DHT22;7744;52.172;10.668;2023-06-19T06:54:48;19.50;1.00
15286;DHT22;7744;52.172;10.668;2023-06-19T06:57:13;19.80;12.30
15286;DHT22;7744;52.172;10.668;2023-06-19T06:59:39;20.00;2.40
15286;DHT22;7744;52.172;10.668;2023-06-19T07:02:05;20.20;1.00
15286;DHT22;7744;52.172;10.668;2023-06-19T07:04:31;20.20;1.00
15286;DHT22;7744;52.172;10.668;2023-06-19T07:06:57;20.30;1.00
15286;DHT22;7744;52.172;10.668;2023-06-19T07:09:23;20.50;1.00
15286;DHT22;7744;52.172;10.668;2023-06-19T07:11:49;20.60;1.00
15286;DHT22;7744;52.172;10.668;2023-06-19T07:14:15;20.80;1.00
15286;DHT22;7744;52.172;10.668;2023-06-19T07:16:44;20.80;1.00
15286;DHT22;7744;52.172;10.668;2023-06-19T07:19:11;20.90;1.00
15286;DHT22;7744;52.172;10.668;2023-06-19T07:21:36;21.20;1.00
15286;DHT22;7744;52.172;10.668;2023-06-19T07:24:04;21.40;1.00
15286;DHT22;7744;52.172;10.668;2023-06-19T07:26:30;21.90;1.00
15286;DHT22;7744;52.172;10.668;2023-06-19T07:28:56;22.20;1.00
15286;DHT22;7744;52.172;10.668;2023-06-19T07:31:22;22.60;1.00
15286;DHT22;7744;52.172;10.668;2023-06-19T07:33:48;22.70;1.00
15286;DHT22;7744;52.172;10.668;2023-06-19T07:36:13;23.20;1.00
15286;DHT22;7744;52.172;10.668;2023-06-19T07:38:43;23.40;1.00
15286;DHT22;7744;52.172;10.668;2023-06-19T07:41:09;23.50;1.00
15286;DHT22;7744;52.172;10.668;2023-06-19T07:43:37;23.20;1.00
15286;DHT22;7744;52.172;10.668;2023-06-19T07:46:03;23.10;1.00
15286;DHT22;7744;52.172;10.668;2023-06-19T07:48:28;23.30;1.00
15286;DHT22;7744;52.172;10.668;2023-06-19T07:50:55;23.30;1.00
15286;DHT22;7744;52.172;10.668;2023-06-19T07:53:20;23.20;1.00
15286;DHT22;7744;52.172;10.668;2023-06-19T07:55:46;23.50;1.00
15286;DHT22;7744;52.172;10.668;2023-06-19T07:58:12;23.60;1.00
15286;DHT22;7744;52.172;10.668;2023-06-19T08:00:39;23.50;1.00
15286;DHT22;7744;52.172;10.668;2023-06-19T08:03:05;23.60;1.00
15286;DHT22;7744;52.172;10.668;2023-06-19T08:05:30;23.60;1.00
15286;DHT22;7744;52.172;10.668;2023-06-19T08:07:56;23.60;1.00
15286;DHT22;7744;52.172;10.668;2023-06-19T08:10:23;23.80;1.00
15286;DHT22;7744;52.172;10.668;2023-06-19T08:12:49;23.70;1.00
15286;DHT22;7744;52.172;10.668;2023-06-19T08:15:15;23.80;1.00
15286;DHT22;7744;52.172;10.668;2023-06-19T08:17:41;23.60;1.00
15286;DHT22;7744;52.172;10.668;2023-06-19T08:20:08;23.30;1.00
15286;DHT22;7744;52.172;10.668;2023-06-19T08:22:35;23.60;1.00
15286;DHT22;7744;52.172;10.668;2023-06-19T08:25:01;23.70;1.00
15286;DHT22;7744;52.172;10.668;2023-06-19T08:27:27;23.80;1.00
15286;DHT22;7744;52.172;10.668;2023-06-19T08:29:52;24.00;1.00
15286;DHT22;7744;52.172;10.668;2023-06-19T08:32:18;24.10;1.00
15286;DHT22;7744;52.172;10.668;2023-06-19T08:34:43;24.20;1.00
15286;DHT22;7744;52.172;10.668;2023-06-19T08:37:09;24.20;1.00
15286;DHT22;7744;52.172;10.668;2023-06-19T08:39:35;24.10;1.00
15286;DHT22;7744;52.172;10.668;2023-06-19T08:42:06;24.30;1.00
15286;DHT22;7744;52.172;10.668;2023-06-19T08:44:36;24.70;1.00
15286;DHT22;7744;52.172;10.668;2023-06-19T08:47:02;24.60;1.00
15286;DHT22;7744;52.172;10.668;2023-06-19T08:49:34;25.00;1.00
15286;DHT22;7744;52.172;10.668;2023-06-19T08:52:01;24.90;1.00
15286;DHT22;7744;52.172;10.668;2023-06-19T08:54:27;24.90;1.00
15286;DHT22;7744;52.172;10.668;2023-06-19T08:56:52;25.00;1.00
15286;DHT22;7744;52.172;10.668;2023-06-19T08:59:20;24.90;1.00
15286;DHT22;7744;52.172;10.668;2023-06-19T09:01:50;25.10;1.00
15286;DHT22;7744;52.172;10.668;2023-06-19T09:04:24;25.20;1.00
15286;DHT22;7744;52.172;10.668;2023-06-19T09:06:57;25.20;1.00
15286;DHT22;7744;52.172;10.668;2023-06-19T09:09:25;25.10;1.00
15286;DHT22;7744;52.172;10.668;2023-06-19T09:12:04;25.40;1.00
15286;DHT22;7744;52.172;10.668;2023-06-19T09:14:41;25.50;1.00
15286;DHT22;7744;52.172;10.668;2023-06-19T09:17:10;25.90;1.00
15286;DHT22;7744;52.172;10.668;2023-06-19T09:19:36;25.90;1.00
15286;DHT22;7744;52.172;10.668;2023-06-19T09:22:03;26.00;1.00
15286;DHT22;7744;52.172;10.668;2023-06-19T09:24:34;26.20;1.00
15286;DHT22;7744;52.172;10.668;2023-06-19T09:27:13;26.20;1.00
15286;DHT22;7744;52.172;10.668;2023-06-19T09:29:40;26.50;1.00
15286;DHT22;7744;52.172;10.668;2023-06-19T09:34:52;27.40;1.00
15286;DHT22;7744;52.172;10.668;2023-06-19T09:37:23;27.50;1.00
15286;DHT22;7744;52.172;10.668;2023-06-19T09:40:03;27.60;1.00
15286;DHT22;7744;52.172;10.668;2023-06-19T09:42:37;28.30;1.00
15286;DHT22;7744;52.172;10.668;2023-06-19T09:45:08;28.60;1.00
15286;DHT22;7744;52.172;10.668;2023-06-19T09:47:38;28.60;1.00
15286;DHT22;7744;52.172;10.668;2023-06-19T09:50:06;28.80;1.00
15286;DHT22;7744;52.172;10.668;2023-06-19T09:52:32;28.70;1.00
15286;DHT22;7744;52.172;10.668;2023-06-19T09:55:04;28.70;1.00
15286;DHT22;7744;52.172;10.668;2023-06-19T09:57:31;28.40;1.00
15286;DHT22;7744;52.172;10.668;2023-06-19T09:59:59;28.50;1.00
15286;DHT22;7744;52.172;10.668;2023-06-19T10:02:31;28.10;1.00
15286;DHT22;7744;52.172;10.668;2023-06-19T10:04:56;27.80;1.00
15286;DHT22;7744;52.172;10.668;2023-06-19T10:07:25;27.70;1.00
15286;DHT22;7744;52.172;10.668;2023-06-19T10:10:02;27.90;1.00
15286;DHT22;7744;52.172;10.668;2023-06-19T10:12:44;28.00;1.00
15286;DHT22;7744;52.172;10.668;2023-06-19T10:17:41;28.20;1.00
15286;DHT22;7744;52.172;10.668;2023-06-19T10:20:28;28.20;1.00
15286;DHT22;7744;52.172;10.668;2023-06-19T10:25:42;28.00;1.00
15286;DHT22;7744;52.172;10.668;2023-06-19T10:28:25;28.10;1.00
15286;DHT22;7744;52.172;10.668;2023-06-19T10:30:58;28.20;1.00
15286;DHT22;7744;52.172;10.668;2023-06-19T10:33:29;28.30;1.00
15286;DHT22;7744;52.172;10.668;2023-06-19T10:35:56;28.40;1.00
15286;DHT22;7744;52.172;10.668;2023-06-19T10:38:22;28.50;1.00
15286;DHT22;7744;52.172;10.668;2023-06-19T10:40:47;28.50;1.00
15286;DHT22;7744;52.172;10.668;2023-06-19T10:43:23;28.70;1.00
15286;DHT22;7744;52.172;10.668;2023-06-19T10:45:51;28.80;1.00
15286;DHT22;7744;52.172;10.668;2023-06-19T10:48:21;29.20;1.00
15286;DHT22;7744;52.172;10.668;2023-06-19T10:50:48;29.60;1.00
15286;DHT22;7744;52.172;10.668;2023-06-19T10:53:31;29.80;1.00
15286;DHT22;7744;52.172;10.668;2023-06-19T10:55:59;30.20;1.00
15286;DHT22;7744;52.172;10.668;2023-06-19T10:58:25;30.20;1.00
15286;DHT22;7744;52.172;10.668;2023-06-19T11:00:51;30.00;1.00
15286;DHT22;7744;52.172;10.668;2023-06-19T11:03:18;29.90;1.00
15286;DHT22;7744;52.172;10.668;2023-06-19T11:05:44;29.70;1.00
15286;DHT22;7744;52.172;10.668;2023-06-19T11:08:10;29.50;1.00
15286;DHT22;7744;52.172;10.668;2023-06-19T11:10:35;29.30;1.00
15286;DHT22;7744;52.172;10.668;2023-06-19T11:13:01;29.00;1.00
15286;DHT22;7744;52.172;10.668;2023-06-19T11:15:33;28.70;1.00
15286;DHT22;7744;52.172;10.668;2023-06-19T11:18:00;28.60;1.00
15286;DHT22;7744;52.172;10.668;2023-06-19T11:20:26;28.40;1.00
15286;DHT22;7744;52.172;10.668;2023-06-19T11:22:58;28.40;1.00
15286;DHT22;7744;52.172;10.668;2023-06-19T11:25:34;28.70;1.00
15286;DHT22;7744;52.172;10.668;2023-06-19T11:28:00;28.60;1.00
15286;DHT22;7744;52.172;10.668;2023-06-19T11:30:33;28.60;1.00
15286;DHT22;7744;52.172;10.668;2023-06-19T11:32:59;28.80;1.00
15286;DHT22;7744;52.172;10.668;2023-06-19T11:35:33;28.50;1.00
15286;DHT22;7744;52.172;10.668;2023-06-19T11:37:59;28.20;1.00
15286;DHT22;7744;52.172;10.668;2023-06-19T11:40:25;28.30;1.00
15286;DHT22;7744;52.172;10.668;2023-06-19T11:42:54;28.40;1.00
15286;DHT22;7744;52.172;10.668;2023-06-19T11:45:20;28.20;1.00
15286;DHT22;7744;52.172;10.668;2023-06-19T11:47:47;28.30;1.00
15286;DHT22;7744;52.172;10.668;2023-06-19T11:50:14;28.40;1.00
15286;DHT22;7744;52.172;10.668;2023-06-19T11:52:44;28.50;1.00
15286;DHT22;7744;52.172;10.668;2023-06-19T11:55:10;28.70;1.00
15286;DHT22;7744;52.172;10.668;2023-06-19T11:57:36;28.80;1.00
15286;DHT22;7744;52.172;10.668;2023-06-19T12:00:02;29.00;1.00
15286;DHT22;7744;52.172;10.668;2023-06-19T12:02:32;29.20;1.00
15286;DHT22;7744;52.172;10.668;2023-06-19T12:04:58;29.10;1.00
15286;DHT22;7744;52.172;10.668;2023-06-19T12:07:24;29.10;1.00
15286;DHT22;7744;52.172;10.668;2023-06-19T12:09:51;29.30;1.00
15286;DHT22;7744;52.172;10.668;2023-06-19T12:12:17;29.50;1.00
15286;DHT22;7744;52.172;10.668;2023-06-19T12:14:42;29.70;1.00
15286;DHT22;7744;52.172;10.668;2023-06-19T12:17:09;29.90;1.00
15286;DHT22;7744;52.172;10.668;2023-06-19T12:19:35;30.00;1.00
15286;DHT22;7744;52.172;10.668;2023-06-19T12:22:03;30.00;1.00
15286;DHT22;7744;52.172;10.668;2023-06-19T12:24:28;30.00;1.00
15286;DHT22;7744;52.172;10.668;2023-06-19T12:26:54;30.10;1.00
15286;DHT22;7744;52.172;10.668;2023-06-19T12:29:20;30.10;1.00
15286;DHT22;7744;52.172;10.668;2023-06-19T12:31:46;30.00;1.00
15286;DHT22;7744;52.172;10.668;2023-06-19T12:34:11;29.80;1.00
15286;DHT22;7744;52.172;10.668;2023-06-19T12:36:37;29.90;1.00
15286;DHT22;7744;52.172;10.668;2023-06-19T12:39:03;29.90;1.00
15286;DHT22;7744;52.172;10.668;2023-06-19T12:41:31;29.60;1.00
15286;DHT22;7744;52.172;10.668;2023-06-19T12:43:57;29.60;1.00
15286;DHT22;7744;52.172;10.668;2023-06-19T12:46:23;29.50;1.00
15286;DHT22;7744;52.172;10.668;2023-06-19T12:48:48;29.60;1.00
15286;DHT22;7744;52.172;10.668;2023-06-19T12:51:17;29.60;1.00
15286;DHT22;7744;52.172;10.668;2023-06-19T12:53:43;29.60;1.00
15286;DHT22;7744;52.172;10.668;2023-06-19T12:56:09;29.80;1.00
15286;DHT22;7744;52.172;10.668;2023-06-19T12:58:35;29.80;1.00
15286;DHT22;7744;52.172;10.668;2023-06-19T13:01:01;29.70;1.00
15286;DHT22;7744;52.172;10.668;2023-06-19T13:03:26;29.60;1.00
15286;DHT22;7744;52.172;10.668;2023-06-19T13:05:53;29.40;1.00
15286;DHT22;7744;52.172;10.668;2023-06-19T13:08:19;29.40;1.00
15286;DHT22;7744;52.172;10.668;2023-06-19T13:10:44;29.60;1.00
15286;DHT22;7744;52.172;10.668;2023-06-19T13:13:11;29.70;1.00
15286;DHT22;7744;52.172;10.668;2023-06-19T13:15:36;29.70;1.00
15286;DHT22;7744;52.172;10.668;2023-06-19T13:18:02;29.80;1.00
15286;DHT22;7744;52.172;10.668;2023-06-19T13:20:28;29.80;1.00
15286;DHT22;7744;52.172;10.668;2023-06-19T13:22:53;29.60;1.00
15286;DHT22;7744;52.172;10.668;2023-06-19T13:25:19;29.40;1.00
15286;DHT22;7744;52.172;10.668;2023-06-19T13:27:45;29.20;1.00
15286;DHT22;7744;52.172;10.668;2023-06-19T13:30:11;29.20;1.00
15286;DHT22;7744;52.172;10.668;2023-06-19T13:32:37;29.30;1.00
15286;DHT22;7744;52.172;10.668;2023-06-19T13:35:07;29.30;1.00
15286;DHT22;7744;52.172;10.668;2023-06-19T13:37:37;29.30;1.00
15286;DHT22;7744;52.172;10.668;2023-06-19T13:40:05;29.30;1.00
15286;DHT22;7744;52.172;10.668;2023-06-19T13:42:31;29.10;1.00
15286;DHT22;7744;52.172;10.668;2023-06-19T13:44:57;29.10;1.00
15286;DHT22;7744;52.172;10.668;2023-06-19T13:47:22;29.00;1.00
15286;DHT22;7744;52.172;10.668;2023-06-19T13:49:51;29.00;1.00
15286;DHT22;7744;52.172;10.668;2023-06-19T13:52:16;29.00;1.00
15286;DHT22;7744;52.172;10.668;2023-06-19T13:54:42;28.90;1.00
15286;DHT22;7744;52.172;10.668;2023-06-19T13:57:08;29.00;1.00
15286;DHT22;7744;52.172;10.668;2023-06-19T13:59:33;29.20;1.00
15286;DHT22;7744;52.172;10.668;2023-06-19T14:01:59;29.00;1.00
15286;DHT22;7744;52.172;10.668;2023-06-19T14:04:24;29.00;1.00
15286;DHT22;7744;52.172;10.668;2023-06-19T14:06:50;28.90;1.00
15286;DHT22;7744;52.172;10.668;2023-06-19T14:09:16;28.90;1.00
15286;DHT22;7744;52.172;10.668;2023-06-19T14:11:41;29.10;1.00
15286;DHT22;7744;52.172;10.668;2023-06-19T14:14:08;29.10;1.00
15286;DHT22;7744;52.172;10.668;2023-06-19T14:16:33;29.00;1.00
15286;DHT22;7744;52.172;10.668;2023-06-19T14:18:59;29.00;1.00
15286;DHT22;7744;52.172;10.668;2023-06-19T14:21:24;29.00;1.00
15286;DHT22;7744;52.172;10.668;2023-06-19T14:23:51;29.10;1.00
15286;DHT22;7744;52.172;10.668;2023-06-19T14:26:16;29.30;1.00
15286;DHT22;7744;52.172;10.668;2023-06-19T14:28:42;29.40;1.00
15286;DHT22;7744;52.172;10.668;2023-06-19T14:31:07;29.20;1.00
15286;DHT22;7744;52.172;10.668;2023-06-19T14:33:33;29.10;1.00
15286;DHT22;7744;52.172;10.668;2023-06-19T14:36:01;29.00;1.00
15286;DHT22;7744;52.172;10.668;2023-06-19T14:38:28;28.80;1.00
15286;DHT22;7744;52.172;10.668;2023-06-19T14:40:57;28.80;1.00
15286;DHT22;7744;52.172;10.668;2023-06-19T14:43:24;28.80;1.00
15286;DHT22;7744;52.172;10.668;2023-06-19T14:45:49;28.70;1.00
15286;DHT22;7744;52.172;10.668;2023-06-19T14:48:15;28.70;1.00
15286;DHT22;7744;52.172;10.668;2023-06-19T14:50:42;28.60;1.00
15286;DHT22;7744;52.172;10.668;2023-06-19T14:53:08;28.50;1.00
15286;DHT22;7744;52.172;10.668;2023-06-19T14:55:34;28.50;1.00
15286;DHT22;7744;52.172;10.668;2023-06-19T14:57:59;28.70;1.00
15286;DHT22;7744;52.172;10.668;2023-06-19T15:00:25;28.70;1.00
15286;DHT22;7744;52.172;10.668;2023-06-19T15:02:50;29.00;1.00
15286;DHT22;7744;52.172;10.668;2023-06-19T15:05:16;28.80;1.00
15286;DHT22;7744;52.172;10.668;2023-06-19T15:07:42;28.50;1.00
15286;DHT22;7744;52.172;10.668;2023-06-19T15:10:08;28.40;1.00
15286;DHT22;7744;52.172;10.668;2023-06-19T15:12:33;28.40;1.00
15286;DHT22;7744;52.172;10.668;2023-06-19T15:15:00;28.40;1.00
15286;DHT22;7744;52.172;10.668;2023-06-19T15:17:26;28.50;1.00
15286;DHT22;7744;52.172;10.668;2023-06-19T15:19:51;28.50;1.00
15286;DHT22;7744;52.172;10.668;2023-06-19T15:22:17;28.40;1.00
15286;DHT22;7744;52.172;10.668;2023-06-19T15:24:43;28.20;1.00
15286;DHT22;7744;52.172;10.668;2023-06-19T15:27:09;28.20;1.00
15286;DHT22;7744;52.172;10.668;2023-06-19T15:29:34;28.20;1.00
15286;DHT22;7744;52.172;10.668;2023-06-19T15:32:01;28.10;1.00
15286;DHT22;7744;52.172;10.668;2023-06-19T15:34:27;28.00;1.00
15286;DHT22;7744;52.172;10.668;2023-06-19T15:36:52;28.00;1.00
15286;DHT22;7744;52.172;10.668;2023-06-19T15:39:18;28.10;1.00
15286;DHT22;7744;52.172;10.668;2023-06-19T15:41:43;28.20;1.00
15286;DHT22;7744;52.172;10.668;2023-06-19T15:44:10;28.10;1.00
15286;DHT22;7744;52.172;10.668;2023-06-19T15:46:36;28.10;1.00
15286;DHT22;7744;52.172;10.668;2023-06-19T15:49:02;28.00;1.00
15286;DHT22;7744;52.172;10.668;2023-06-19T15:51:28;28.00;1.00
15286;DHT22;7744;52.172;10.668;2023-06-19T15:53:54;27.90;1.00